首页
METAR-TAF:

METAR-TAF

机场 :

開羅國際機場

开罗, 埃及

纬度: 30-08N, 经度: 031-24E, 海拔: 64米

当前天气观测

该预报发布于29分钟前的03:00 UTC
风速4节,风向
温度 29°C
湿度 33%
气压 1009 hPa
能见度10公里或以上
少量云层高于2500英尺
多云层高于7000英尺

METAR: HECA 250300Z 09004KT 9999 FEW025 BKN070 29/11 Q1009 NOSIG

时间: 05:29 (03:29 UTC)

预报

该预报发布于2小时和29分钟前的01:00 UTC
预报有效从25日的 01点(UTC)到 26日的 06点(UTC)
风速3节,风向多变
能见度10公里或以上
1500米以下无云,无积雨云
短暂存在
从 25日的 01点(UTC)到 25日的 10点(UTC)
能見度: 6000
几率 40% :
短暂存在
从 25日的 01点(UTC)到 25日的 06点(UTC)
散云层高于3000英尺
小雨
短暂存在
从 25日的 01点(UTC)到 25日的 08点(UTC)
能見度: 4000
成为
从 25日的 10点(UTC)到 25日的 12点(UTC)
风速8节,风向西

TAF: HECA 250100Z 2501/2606 VRB03KT CAVOK TEMPO 2501/2510 6000 NSC PROB40 TEMPO 2501/2506 -RA SCT030 TEMPO 2501/2508 4000 HZ BECMG 2510/2512 28008KT

超过4000个机场的气象观测和天气预报(METAR&TAF报告)。

可查询的气象台以黄色和红色小点在地图上表示。

将鼠标移到小点上方,可查看气象台名称。

然后点击查看天气观测和预报。

如需切换地图:点击带黑十字的绿色按钮放大地图;点击带横线的绿色按钮缩小地图;或者点击绿色箭头查看邻近地区的地图。


METAR-TAF: